sensor_id;sensor_type;location;lat;lon;timestamp;pressure;altitude;pressure_sealevel;temperature
42197;BMP280;27866;48.146;17.098;2022-12-10T00:01:13;98246.16;;;8.18
42197;BMP280;27866;48.146;17.098;2022-12-10T00:05:24;98259.53;;;8.12
42197;BMP280;27866;48.146;17.098;2022-12-10T00:09:36;98257.97;;;8.01
42197;BMP280;27866;48.146;17.098;2022-12-10T00:13:48;98263.34;;;7.98
42197;BMP280;27866;48.146;17.098;2022-12-10T00:17:59;98271.81;;;7.89
42197;BMP280;27866;48.146;17.098;2022-12-10T00:22:11;98283.31;;;7.85
42197;BMP280;27866;48.146;17.098;2022-12-10T00:26:26;98282.75;;;7.82
42197;BMP280;27866;48.146;17.098;2022-12-10T00:30:39;98290.81;;;7.78
42197;BMP280;27866;48.146;17.098;2022-12-10T00:34:50;98304.31;;;7.70
42197;BMP280;27866;48.146;17.098;2022-12-10T00:39:02;98304.53;;;7.67
42197;BMP280;27866;48.146;17.098;2022-12-10T00:43:13;98310.03;;;7.74
42197;BMP280;27866;48.146;17.098;2022-12-10T00:47:24;98302.06;;;7.77
42197;BMP280;27866;48.146;17.098;2022-12-10T00:51:36;98310.03;;;7.74
42197;BMP280;27866;48.146;17.098;2022-12-10T00:55:47;98308.72;;;7.79
42197;BMP280;27866;48.146;17.098;2022-12-10T00:59:58;98307.28;;;7.86
42197;BMP280;27866;48.146;17.098;2022-12-10T01:04:15;98311.97;;;8.02
42197;BMP280;27866;48.146;17.098;2022-12-10T01:08:27;98320.38;;;8.04
42197;BMP280;27866;48.146;17.098;2022-12-10T01:12:38;98320.75;;;8.00
42197;BMP280;27866;48.146;17.098;2022-12-10T01:16:53;98317.50;;;7.87
42197;BMP280;27866;48.146;17.098;2022-12-10T01:21:09;98329.41;;;7.88
42197;BMP280;27866;48.146;17.098;2022-12-10T01:25:20;98322.84;;;8.06
42197;BMP280;27866;48.146;17.098;2022-12-10T01:29:32;98324.38;;;7.97
42197;BMP280;27866;48.146;17.098;2022-12-10T01:33:44;98333.91;;;7.76
42197;BMP280;27866;48.146;17.098;2022-12-10T01:37:55;98344.47;;;7.62
42197;BMP280;27866;48.146;17.098;2022-12-10T01:42:09;98350.59;;;7.61
42197;BMP280;27866;48.146;17.098;2022-12-10T01:46:32;98349.97;;;7.58
42197;BMP280;27866;48.146;17.098;2022-12-10T01:50:44;98358.50;;;7.69
42197;BMP280;27866;48.146;17.098;2022-12-10T01:54:55;98348.09;;;7.70
42197;BMP280;27866;48.146;17.098;2022-12-10T01:59:07;98355.75;;;7.61
42197;BMP280;27866;48.146;17.098;2022-12-10T02:03:42;98351.06;;;7.45
42197;BMP280;27866;48.146;17.098;2022-12-10T02:08:24;98349.31;;;7.45
42197;BMP280;27866;48.146;17.098;2022-12-10T02:16:59;98377.28;;;7.39
42197;BMP280;27866;48.146;17.098;2022-12-10T02:21:36;98364.66;;;7.36
42197;BMP280;27866;48.146;17.098;2022-12-10T02:31:00;98373.06;;;7.27
42197;BMP280;27866;48.146;17.098;2022-12-10T02:35:25;98381.94;;;7.23
42197;BMP280;27866;48.146;17.098;2022-12-10T02:39:43;98371.00;;;7.22
42197;BMP280;27866;48.146;17.098;2022-12-10T02:43:57;98381.03;;;7.24
42197;BMP280;27866;48.146;17.098;2022-12-10T02:48:10;98363.03;;;7.24
42197;BMP280;27866;48.146;17.098;2022-12-10T02:52:26;98357.28;;;7.10
42197;BMP280;27866;48.146;17.098;2022-12-10T02:56:50;98361.63;;;7.10
42197;BMP280;27866;48.146;17.098;2022-12-10T03:01:12;98359.16;;;7.08
42197;BMP280;27866;48.146;17.098;2022-12-10T03:05:47;98348.75;;;6.99
42197;BMP280;27866;48.146;17.098;2022-12-10T03:10:11;98360.44;;;6.93
42197;BMP280;27866;48.146;17.098;2022-12-10T03:14:33;98357.41;;;6.98
42197;BMP280;27866;48.146;17.098;2022-12-10T03:18:49;98345.00;;;7.03
42197;BMP280;27866;48.146;17.098;2022-12-10T03:23:02;98336.56;;;7.01
42197;BMP280;27866;48.146;17.098;2022-12-10T03:27:16;98351.78;;;7.04
42197;BMP280;27866;48.146;17.098;2022-12-10T03:31:31;98353.88;;;6.99
42197;BMP280;27866;48.146;17.098;2022-12-10T03:35:43;98363.25;;;7.00
42197;BMP280;27866;48.146;17.098;2022-12-10T03:39:57;98375.63;;;6.95
42197;BMP280;27866;48.146;17.098;2022-12-10T03:44:09;98388.50;;;6.95
42197;BMP280;27866;48.146;17.098;2022-12-10T03:48:20;98383.50;;;7.15
42197;BMP280;27866;48.146;17.098;2022-12-10T03:52:31;98383.72;;;7.34
42197;BMP280;27866;48.146;17.098;2022-12-10T03:56:42;98383.81;;;7.43
42197;BMP280;27866;48.146;17.098;2022-12-10T04:00:53;98377.06;;;7.42
42197;BMP280;27866;48.146;17.098;2022-12-10T04:05:05;98382.22;;;7.42
42197;BMP280;27866;48.146;17.098;2022-12-10T04:09:17;98379.41;;;7.34
42197;BMP280;27866;48.146;17.098;2022-12-10T04:13:31;98366.75;;;7.31
42197;BMP280;27866;48.146;17.098;2022-12-10T04:18:20;98368.63;;;7.29
42197;BMP280;27866;48.146;17.098;2022-12-10T04:22:31;98388.03;;;7.33
42197;BMP280;27866;48.146;17.098;2022-12-10T04:27:26;98378.47;;;7.24
42197;BMP280;27866;48.146;17.098;2022-12-10T04:31:37;98377.84;;;7.10
42197;BMP280;27866;48.146;17.098;2022-12-10T04:35:49;98403.47;;;7.01
42197;BMP280;27866;48.146;17.098;2022-12-10T04:40:00;98399.22;;;6.90
42197;BMP280;27866;48.146;17.098;2022-12-10T04:44:11;98402.75;;;6.89
42197;BMP280;27866;48.146;17.098;2022-12-10T04:48:23;98397.72;;;6.87
42197;BMP280;27866;48.146;17.098;2022-12-10T04:52:34;98395.63;;;6.81
42197;BMP280;27866;48.146;17.098;2022-12-10T04:56:45;98389.50;;;6.72
42197;BMP280;27866;48.146;17.098;2022-12-10T05:01:04;98374.66;;;6.65
42197;BMP280;27866;48.146;17.098;2022-12-10T05:05:16;98378.84;;;6.55
42197;BMP280;27866;48.146;17.098;2022-12-10T05:09:27;98383.72;;;6.47
42197;BMP280;27866;48.146;17.098;2022-12-10T05:13:39;98392.25;;;6.48
42197;BMP280;27866;48.146;17.098;2022-12-10T05:17:50;98397.50;;;6.46
42197;BMP280;27866;48.146;17.098;2022-12-10T05:22:02;98406.94;;;6.68
42197;BMP280;27866;48.146;17.098;2022-12-10T05:26:31;98405.31;;;6.78
42197;BMP280;27866;48.146;17.098;2022-12-10T05:30:43;98409.31;;;6.93
42197;BMP280;27866;48.146;17.098;2022-12-10T05:34:54;98411.09;;;7.13
42197;BMP280;27866;48.146;17.098;2022-12-10T05:39:06;98407.03;;;7.22
42197;BMP280;27866;48.146;17.098;2022-12-10T05:43:18;98408.88;;;7.41
42197;BMP280;27866;48.146;17.098;2022-12-10T05:47:29;98422.22;;;7.56
42197;BMP280;27866;48.146;17.098;2022-12-10T05:51:40;98412.72;;;7.46
42197;BMP280;27866;48.146;17.098;2022-12-10T05:56:04;98406.88;;;7.44
42197;BMP280;27866;48.146;17.098;2022-12-10T06:00:15;98410.75;;;7.39
42197;BMP280;27866;48.146;17.098;2022-12-10T06:04:27;98405.81;;;7.15
42197;BMP280;27866;48.146;17.098;2022-12-10T06:08:38;98412.81;;;6.92
42197;BMP280;27866;48.146;17.098;2022-12-10T06:12:51;98422.88;;;6.94
42197;BMP280;27866;48.146;17.098;2022-12-10T06:17:02;98434.34;;;7.01
42197;BMP280;27866;48.146;17.098;2022-12-10T06:21:16;98451.91;;;7.07
42197;BMP280;27866;48.146;17.098;2022-12-10T06:25:27;98468.28;;;7.17
42197;BMP280;27866;48.146;17.098;2022-12-10T06:29:38;98476.97;;;7.26
42197;BMP280;27866;48.146;17.098;2022-12-10T06:33:50;98485.16;;;7.31
42197;BMP280;27866;48.146;17.098;2022-12-10T06:38:02;98495.25;;;7.34
42197;BMP280;27866;48.146;17.098;2022-12-10T06:42:13;98487.97;;;7.39
42197;BMP280;27866;48.146;17.098;2022-12-10T06:46:25;98491.38;;;7.29
42197;BMP280;27866;48.146;17.098;2022-12-10T06:50:38;98487.03;;;7.29
42197;BMP280;27866;48.146;17.098;2022-12-10T06:54:49;98483.53;;;7.30
42197;BMP280;27866;48.146;17.098;2022-12-10T06:59:04;98472.03;;;7.23
42197;BMP280;27866;48.146;17.098;2022-12-10T07:03:17;98466.69;;;7.26
42197;BMP280;27866;48.146;17.098;2022-12-10T07:07:28;98463.53;;;7.23
42197;BMP280;27866;48.146;17.098;2022-12-10T07:11:39;98457.53;;;7.23
42197;BMP280;27866;48.146;17.098;2022-12-10T07:15:51;98454.50;;;7.28
42197;BMP280;27866;48.146;17.098;2022-12-10T07:20:03;98467.88;;;7.54
42197;BMP280;27866;48.146;17.098;2022-12-10T07:24:18;98455.81;;;7.55
42197;BMP280;27866;48.146;17.098;2022-12-10T07:28:29;98457.56;;;7.54
42197;BMP280;27866;48.146;17.098;2022-12-10T07:32:40;98440.97;;;7.48
42197;BMP280;27866;48.146;17.098;2022-12-10T07:36:51;98442.81;;;7.46
42197;BMP280;27866;48.146;17.098;2022-12-10T07:41:05;98436.25;;;7.31
42197;BMP280;27866;48.146;17.098;2022-12-10T07:45:16;98439.56;;;7.44
42197;BMP280;27866;48.146;17.098;2022-12-10T07:49:29;98442.00;;;7.67
42197;BMP280;27866;48.146;17.098;2022-12-10T07:53:41;98439.97;;;7.81
42197;BMP280;27866;48.146;17.098;2022-12-10T07:57:52;98427.13;;;7.70
42197;BMP280;27866;48.146;17.098;2022-12-10T08:02:03;98422.44;;;7.64
42197;BMP280;27866;48.146;17.098;2022-12-10T08:06:20;98434.63;;;7.62
42197;BMP280;27866;48.146;17.098;2022-12-10T08:10:38;98440.94;;;7.69
42197;BMP280;27866;48.146;17.098;2022-12-10T08:14:49;98448.66;;;7.58
42197;BMP280;27866;48.146;17.098;2022-12-10T08:19:01;98441.75;;;7.69
42197;BMP280;27866;48.146;17.098;2022-12-10T08:23:12;98451.00;;;7.72
42197;BMP280;27866;48.146;17.098;2022-12-10T08:27:23;98466.69;;;7.80
42197;BMP280;27866;48.146;17.098;2022-12-10T08:31:35;98474.75;;;7.86
42197;BMP280;27866;48.146;17.098;2022-12-10T08:35:46;98464.13;;;7.80
42197;BMP280;27866;48.146;17.098;2022-12-10T08:39:57;98464.94;;;7.80
42197;BMP280;27866;48.146;17.098;2022-12-10T08:44:08;98457.78;;;7.73
42197;BMP280;27866;48.146;17.098;2022-12-10T08:48:20;98447.94;;;7.67
42197;BMP280;27866;48.146;17.098;2022-12-10T08:52:31;98466.47;;;7.72
42197;BMP280;27866;48.146;17.098;2022-12-10T08:56:42;98467.28;;;7.94
42197;BMP280;27866;48.146;17.098;2022-12-10T09:00:53;98479.09;;;8.07
42197;BMP280;27866;48.146;17.098;2022-12-10T09:05:05;98483.78;;;8.02
42197;BMP280;27866;48.146;17.098;2022-12-10T09:09:17;98493.38;;;8.10
42197;BMP280;27866;48.146;17.098;2022-12-10T09:13:28;98493.41;;;8.00
42197;BMP280;27866;48.146;17.098;2022-12-10T09:17:39;98495.72;;;7.92
42197;BMP280;27866;48.146;17.098;2022-12-10T09:21:50;98495.03;;;7.90
42197;BMP280;27866;48.146;17.098;2022-12-10T09:26:09;98491.50;;;8.12
42197;BMP280;27866;48.146;17.098;2022-12-10T09:30:21;98489.19;;;7.99
42197;BMP280;27866;48.146;17.098;2022-12-10T09:34:32;98489.16;;;7.88
42197;BMP280;27866;48.146;17.098;2022-12-10T09:38:44;98473.13;;;8.06
42197;BMP280;27866;48.146;17.098;2022-12-10T09:43:04;98479.31;;;8.25
42197;BMP280;27866;48.146;17.098;2022-12-10T09:47:17;98478.56;;;8.34
42197;BMP280;27866;48.146;17.098;2022-12-10T09:51:34;98456.91;;;8.36
42197;BMP280;27866;48.146;17.098;2022-12-10T09:55:48;98457.41;;;8.50
42197;BMP280;27866;48.146;17.098;2022-12-10T10:00:26;98462.69;;;8.49
42197;BMP280;27866;48.146;17.098;2022-12-10T10:04:40;98464.06;;;8.33
42197;BMP280;27866;48.146;17.098;2022-12-10T10:08:54;98465.72;;;8.23
42197;BMP280;27866;48.146;17.098;2022-12-10T10:17:43;98463.09;;;8.34
42197;BMP280;27866;48.146;17.098;2022-12-10T10:21:58;98465.31;;;8.38
42197;BMP280;27866;48.146;17.098;2022-12-10T10:26:09;98460.09;;;8.29
42197;BMP280;27866;48.146;17.098;2022-12-10T10:30:22;98461.97;;;8.27
42197;BMP280;27866;48.146;17.098;2022-12-10T10:34:33;98472.31;;;8.06
42197;BMP280;27866;48.146;17.098;2022-12-10T10:38:48;98470.31;;;8.09
42197;BMP280;27866;48.146;17.098;2022-12-10T10:43:00;98458.94;;;8.11
42197;BMP280;27866;48.146;17.098;2022-12-10T10:47:30;98442.31;;;8.05
42197;BMP280;27866;48.146;17.098;2022-12-10T10:51:44;98425.31;;;8.13
42197;BMP280;27866;48.146;17.098;2022-12-10T10:56:06;98418.88;;;8.08
42197;BMP280;27866;48.146;17.098;2022-12-10T11:00:21;98418.50;;;8.23
42197;BMP280;27866;48.146;17.098;2022-12-10T11:04:38;98404.56;;;8.45
42197;BMP280;27866;48.146;17.098;2022-12-10T11:08:57;98396.22;;;8.52
42197;BMP280;27866;48.146;17.098;2022-12-10T11:13:27;98382.25;;;8.54
42197;BMP280;27866;48.146;17.098;2022-12-10T11:17:47;98374.78;;;8.52
42197;BMP280;27866;48.146;17.098;2022-12-10T11:22:19;98388.38;;;8.54
42197;BMP280;27866;48.146;17.098;2022-12-10T11:27:01;98404.97;;;8.40
42197;BMP280;27866;48.146;17.098;2022-12-10T11:31:50;98393.47;;;8.44
42197;BMP280;27866;48.146;17.098;2022-12-10T11:36:50;98405.88;;;8.39
42197;BMP280;27866;48.146;17.098;2022-12-10T11:41:36;98410.13;;;8.30
42197;BMP280;27866;48.146;17.098;2022-12-10T11:46:15;98403.16;;;8.10
42197;BMP280;27866;48.146;17.098;2022-12-10T11:50:44;98390.06;;;7.92
42197;BMP280;27866;48.146;17.098;2022-12-10T12:13:35;98363.31;;;8.14
42197;BMP280;27866;48.146;17.098;2022-12-10T12:17:55;98364.72;;;8.18
42197;BMP280;27866;48.146;17.098;2022-12-10T12:22:37;98356.34;;;8.25
42197;BMP280;27866;48.146;17.098;2022-12-10T12:31:27;98365.38;;;8.51
42197;BMP280;27866;48.146;17.098;2022-12-10T12:35:51;98354.59;;;8.26
42197;BMP280;27866;48.146;17.098;2022-12-10T12:40:34;98354.25;;;8.30
42197;BMP280;27866;48.146;17.098;2022-12-10T12:45:03;98347.84;;;8.25
42197;BMP280;27866;48.146;17.098;2022-12-10T12:49:37;98360.84;;;8.24
42197;BMP280;27866;48.146;17.098;2022-12-10T12:53:50;98366.59;;;8.16
42197;BMP280;27866;48.146;17.098;2022-12-10T13:07:35;98349.22;;;7.98
42197;BMP280;27866;48.146;17.098;2022-12-10T13:17:36;98371.16;;;7.93
42197;BMP280;27866;48.146;17.098;2022-12-10T13:27:01;98355.88;;;7.90
42197;BMP280;27866;48.146;17.098;2022-12-10T13:35:30;98391.03;;;7.91
42197;BMP280;27866;48.146;17.098;2022-12-10T13:44:46;98394.00;;;7.76
42197;BMP280;27866;48.146;17.098;2022-12-10T13:49:02;98392.22;;;7.77
42197;BMP280;27866;48.146;17.098;2022-12-10T13:57:50;98382.50;;;7.80
42197;BMP280;27866;48.146;17.098;2022-12-10T14:06:47;98375.69;;;7.79
42197;BMP280;27866;48.146;17.098;2022-12-10T14:11:00;98370.69;;;7.78
42197;BMP280;27866;48.146;17.098;2022-12-10T14:15:20;98386.13;;;7.78
42197;BMP280;27866;48.146;17.098;2022-12-10T14:19:35;98384.03;;;7.72
42197;BMP280;27866;48.146;17.098;2022-12-10T14:23:48;98372.31;;;7.79
42197;BMP280;27866;48.146;17.098;2022-12-10T14:27:59;98371.38;;;7.80
42197;BMP280;27866;48.146;17.098;2022-12-10T14:32:28;98356.50;;;7.83
42197;BMP280;27866;48.146;17.098;2022-12-10T14:36:47;98364.00;;;7.75
42197;BMP280;27866;48.146;17.098;2022-12-10T14:41:00;98362.00;;;7.79
42197;BMP280;27866;48.146;17.098;2022-12-10T14:45:14;98361.38;;;7.86
42197;BMP280;27866;48.146;17.098;2022-12-10T14:49:27;98361.06;;;7.80
42197;BMP280;27866;48.146;17.098;2022-12-10T14:53:38;98359.47;;;7.68
42197;BMP280;27866;48.146;17.098;2022-12-10T14:57:55;98355.75;;;7.61
42197;BMP280;27866;48.146;17.098;2022-12-10T15:02:33;98353.25;;;7.70
42197;BMP280;27866;48.146;17.098;2022-12-10T15:06:45;98346.81;;;7.76
42197;BMP280;27866;48.146;17.098;2022-12-10T15:10:59;98356.41;;;7.74
42197;BMP280;27866;48.146;17.098;2022-12-10T15:23:44;98347.00;;;7.83
42197;BMP280;27866;48.146;17.098;2022-12-10T15:28:00;98349.72;;;7.82
42197;BMP280;27866;48.146;17.098;2022-12-10T15:32:27;98345.84;;;7.77
42197;BMP280;27866;48.146;17.098;2022-12-10T15:36:50;98357.31;;;7.83
42197;BMP280;27866;48.146;17.098;2022-12-10T15:45:58;98353.13;;;7.93
42197;BMP280;27866;48.146;17.098;2022-12-10T15:50:10;98339.03;;;7.86
42197;BMP280;27866;48.146;17.098;2022-12-10T15:54:46;98342.56;;;7.85
42197;BMP280;27866;48.146;17.098;2022-12-10T15:58:57;98348.84;;;7.92
42197;BMP280;27866;48.146;17.098;2022-12-10T16:03:12;98352.88;;;7.75
42197;BMP280;27866;48.146;17.098;2022-12-10T16:07:24;98355.00;;;7.70
42197;BMP280;27866;48.146;17.098;2022-12-10T16:11:35;98344.34;;;7.74
42197;BMP280;27866;48.146;17.098;2022-12-10T16:15:55;98335.09;;;7.72
42197;BMP280;27866;48.146;17.098;2022-12-10T16:20:29;98337.72;;;7.61
42197;BMP280;27866;48.146;17.098;2022-12-10T16:24:41;98327.41;;;7.51
42197;BMP280;27866;48.146;17.098;2022-12-10T16:28:52;98329.38;;;7.58
42197;BMP280;27866;48.146;17.098;2022-12-10T16:33:04;98325.88;;;7.59
42197;BMP280;27866;48.146;17.098;2022-12-10T16:37:15;98327.28;;;7.63
42197;BMP280;27866;48.146;17.098;2022-12-10T16:41:28;98327.19;;;7.53
42197;BMP280;27866;48.146;17.098;2022-12-10T16:45:40;98332.22;;;7.55
42197;BMP280;27866;48.146;17.098;2022-12-10T16:49:51;98320.97;;;7.56
42197;BMP280;27866;48.146;17.098;2022-12-10T16:54:02;98318.16;;;7.48
42197;BMP280;27866;48.146;17.098;2022-12-10T16:58:15;98334.00;;;7.44
42197;BMP280;27866;48.146;17.098;2022-12-10T17:02:27;98324.13;;;7.49
42197;BMP280;27866;48.146;17.098;2022-12-10T17:06:38;98318.28;;;7.57
42197;BMP280;27866;48.146;17.098;2022-12-10T17:10:49;98318.72;;;7.62
42197;BMP280;27866;48.146;17.098;2022-12-10T17:15:19;98306.06;;;7.70
42197;BMP280;27866;48.146;17.098;2022-12-10T17:19:33;98320.56;;;7.71
42197;BMP280;27866;48.146;17.098;2022-12-10T17:23:45;98316.84;;;7.64
42197;BMP280;27866;48.146;17.098;2022-12-10T17:27:57;98306.59;;;7.53
42197;BMP280;27866;48.146;17.098;2022-12-10T17:32:13;98311.47;;;7.56
42197;BMP280;27866;48.146;17.098;2022-12-10T17:36:25;98307.63;;;7.51
42197;BMP280;27866;48.146;17.098;2022-12-10T17:40:36;98312.44;;;7.55
42197;BMP280;27866;48.146;17.098;2022-12-10T17:44:47;98313.22;;;7.56
42197;BMP280;27866;48.146;17.098;2022-12-10T17:48:58;98309.13;;;7.64
42197;BMP280;27866;48.146;17.098;2022-12-10T17:53:12;98311.38;;;7.47
42197;BMP280;27866;48.146;17.098;2022-12-10T17:57:28;98315.16;;;7.43
42197;BMP280;27866;48.146;17.098;2022-12-10T18:01:39;98325.19;;;7.46
42197;BMP280;27866;48.146;17.098;2022-12-10T18:05:51;98311.25;;;7.49
42197;BMP280;27866;48.146;17.098;2022-12-10T18:10:06;98303.09;;;7.44
42197;BMP280;27866;48.146;17.098;2022-12-10T18:14:20;98314.09;;;7.35
42197;BMP280;27866;48.146;17.098;2022-12-10T18:18:31;98315.41;;;7.40
42197;BMP280;27866;48.146;17.098;2022-12-10T18:22:42;98324.16;;;7.38
42197;BMP280;27866;48.146;17.098;2022-12-10T18:26:53;98301.34;;;7.34
42197;BMP280;27866;48.146;17.098;2022-12-10T18:31:08;98316.44;;;7.38
42197;BMP280;27866;48.146;17.098;2022-12-10T18:35:19;98307.88;;;7.48
42197;BMP280;27866;48.146;17.098;2022-12-10T18:39:31;98312.78;;;7.51
42197;BMP280;27866;48.146;17.098;2022-12-10T18:43:44;98318.53;;;7.33
42197;BMP280;27866;48.146;17.098;2022-12-10T18:47:56;98318.78;;;7.30
42197;BMP280;27866;48.146;17.098;2022-12-10T18:52:07;98311.19;;;7.29
42197;BMP280;27866;48.146;17.098;2022-12-10T18:56:25;98302.88;;;7.25
42197;BMP280;27866;48.146;17.098;2022-12-10T19:00:37;98312.00;;;7.19
42197;BMP280;27866;48.146;17.098;2022-12-10T19:04:50;98308.13;;;7.24
42197;BMP280;27866;48.146;17.098;2022-12-10T19:09:01;98303.00;;;7.24
42197;BMP280;27866;48.146;17.098;2022-12-10T19:13:13;98307.09;;;7.26
42197;BMP280;27866;48.146;17.098;2022-12-10T19:17:24;98308.75;;;7.17
42197;BMP280;27866;48.146;17.098;2022-12-10T19:21:35;98296.91;;;7.14
42197;BMP280;27866;48.146;17.098;2022-12-10T19:25:46;98293.44;;;7.15
42197;BMP280;27866;48.146;17.098;2022-12-10T19:29:57;98290.72;;;7.17
42197;BMP280;27866;48.146;17.098;2022-12-10T19:34:10;98290.16;;;7.13
42197;BMP280;27866;48.146;17.098;2022-12-10T19:38:21;98279.03;;;7.13
42197;BMP280;27866;48.146;17.098;2022-12-10T19:42:32;98299.84;;;7.21
42197;BMP280;27866;48.146;17.098;2022-12-10T19:46:44;98305.94;;;7.20
42197;BMP280;27866;48.146;17.098;2022-12-10T19:50:55;98311.91;;;7.09
42197;BMP280;27866;48.146;17.098;2022-12-10T19:55:07;98309.69;;;7.16
42197;BMP280;27866;48.146;17.098;2022-12-10T19:59:19;98306.50;;;7.12
42197;BMP280;27866;48.146;17.098;2022-12-10T20:03:30;98301.13;;;7.05
42197;BMP280;27866;48.146;17.098;2022-12-10T20:07:41;98304.31;;;6.97
42197;BMP280;27866;48.146;17.098;2022-12-10T20:11:53;98303.50;;;6.97
42197;BMP280;27866;48.146;17.098;2022-12-10T20:16:24;98306.19;;;6.85
42197;BMP280;27866;48.146;17.098;2022-12-10T20:20:35;98312.94;;;6.86
42197;BMP280;27866;48.146;17.098;2022-12-10T20:24:47;98308.28;;;6.80
42197;BMP280;27866;48.146;17.098;2022-12-10T20:29:01;98319.88;;;6.85
42197;BMP280;27866;48.146;17.098;2022-12-10T20:33:12;98306.41;;;6.93
42197;BMP280;27866;48.146;17.098;2022-12-10T20:37:23;98310.41;;;6.96
42197;BMP280;27866;48.146;17.098;2022-12-10T20:41:35;98305.47;;;6.94
42197;BMP280;27866;48.146;17.098;2022-12-10T20:45:46;98308.16;;;6.92
42197;BMP280;27866;48.146;17.098;2022-12-10T20:49:57;98305.69;;;7.01
42197;BMP280;27866;48.146;17.098;2022-12-10T20:54:09;98306.88;;;6.97
42197;BMP280;27866;48.146;17.098;2022-12-10T20:58:20;98312.38;;;7.04
42197;BMP280;27866;48.146;17.098;2022-12-10T21:02:31;98317.88;;;6.99
42197;BMP280;27866;48.146;17.098;2022-12-10T21:06:43;98303.00;;;7.03
42197;BMP280;27866;48.146;17.098;2022-12-10T21:10:55;98302.66;;;7.07
42197;BMP280;27866;48.146;17.098;2022-12-10T21:15:06;98313.28;;;7.03
42197;BMP280;27866;48.146;17.098;2022-12-10T21:19:18;98284.66;;;7.07
42197;BMP280;27866;48.146;17.098;2022-12-10T21:23:30;98296.25;;;7.02
42197;BMP280;27866;48.146;17.098;2022-12-10T21:27:41;98296.59;;;7.08
42197;BMP280;27866;48.146;17.098;2022-12-10T21:31:52;98298.22;;;7.09
42197;BMP280;27866;48.146;17.098;2022-12-10T21:36:04;98277.28;;;7.03
42197;BMP280;27866;48.146;17.098;2022-12-10T21:40:16;98267.50;;;6.97
42197;BMP280;27866;48.146;17.098;2022-12-10T21:44:27;98259.88;;;6.95
42197;BMP280;27866;48.146;17.098;2022-12-10T21:48:38;98249.81;;;6.93
42197;BMP280;27866;48.146;17.098;2022-12-10T21:52:49;98245.38;;;6.84
42197;BMP280;27866;48.146;17.098;2022-12-10T21:57:02;98242.69;;;6.85
42197;BMP280;27866;48.146;17.098;2022-12-10T22:01:13;98246.31;;;6.83
42197;BMP280;27866;48.146;17.098;2022-12-10T22:05:25;98239.66;;;6.80
42197;BMP280;27866;48.146;17.098;2022-12-10T22:09:36;98226.00;;;6.80
42197;BMP280;27866;48.146;17.098;2022-12-10T22:13:47;98229.63;;;6.78
42197;BMP280;27866;48.146;17.098;2022-12-10T22:18:02;98237.66;;;6.84
42197;BMP280;27866;48.146;17.098;2022-12-10T22:22:13;98236.47;;;6.88
42197;BMP280;27866;48.146;17.098;2022-12-10T22:26:24;98254.75;;;6.85
42197;BMP280;27866;48.146;17.098;2022-12-10T22:30:38;98256.84;;;6.91
42197;BMP280;27866;48.146;17.098;2022-12-10T22:34:50;98261.50;;;6.86
42197;BMP280;27866;48.146;17.098;2022-12-10T22:39:01;98269.00;;;6.89
42197;BMP280;27866;48.146;17.098;2022-12-10T22:43:12;98271.31;;;6.92
42197;BMP280;27866;48.146;17.098;2022-12-10T22:47:27;98266.88;;;6.94
42197;BMP280;27866;48.146;17.098;2022-12-10T22:51:38;98281.84;;;6.99
42197;BMP280;27866;48.146;17.098;2022-12-10T22:55:57;98289.22;;;7.04
42197;BMP280;27866;48.146;17.098;2022-12-10T23:00:13;98286.41;;;6.96
42197;BMP280;27866;48.146;17.098;2022-12-10T23:04:48;98260.34;;;7.00
42197;BMP280;27866;48.146;17.098;2022-12-10T23:08:59;98247.81;;;7.07
42197;BMP280;27866;48.146;17.098;2022-12-10T23:13:12;98246.06;;;7.07
42197;BMP280;27866;48.146;17.098;2022-12-10T23:17:26;98263.03;;;7.09
42197;BMP280;27866;48.146;17.098;2022-12-10T23:21:37;98222.69;;;7.10
42197;BMP280;27866;48.146;17.098;2022-12-10T23:25:48;98233.66;;;7.01
42197;BMP280;27866;48.146;17.098;2022-12-10T23:30:00;98233.66;;;7.01
42197;BMP280;27866;48.146;17.098;2022-12-10T23:34:11;98233.66;;;7.01
42197;BMP280;27866;48.146;17.098;2022-12-10T23:38:23;98239.06;;;6.98
42197;BMP280;27866;48.146;17.098;2022-12-10T23:42:34;98223.25;;;7.03
42197;BMP280;27866;48.146;17.098;2022-12-10T23:46:45;98234.94;;;7.07
42197;BMP280;27866;48.146;17.098;2022-12-10T23:50:59;98242.66;;;7.07
42197;BMP280;27866;48.146;17.098;2022-12-10T23:55:10;98251.34;;;7.06
42197;BMP280;27866;48.146;17.098;2022-12-10T23:59:21;98267.91;;;7.12
